Arroyo, Puerto Rico
Current Conditions -  °F | °C
As of 12:56 PM on Thursday 18 Dec 2014 (Local Time) from TJSJ Reporting Station
Broken Clouds Broken Clouds  
Wind Chill: 82°   Ceiling: 8000
Heat Index: 86°   Visibility: 10mi
Dew Point: 71°   Wind: 15mph
Humidity: 69%   Direction: 20°NNE
Pressure: 30.02"   Gusts: NA
Location:  17.97°N, 66.06°W
Report Text: TJSJ 181656Z 02013KT 10SM FEW026 SCT034 BKN080 28/22 A3002 RMK AO2 SLP163 SHRA DSNT S T02780217
Loading
Personal Weather Stations






























Interactive Weather Map New forecast layout! Learn more

10-Day Weather Forecast

Advertisements
Track Severe Weather on mobile